Time;durP1;ratioP1;P1;durP2;ratioP2;P2;SDS_P1;SDS_P2;PMS_P1;PMS_P2;Temp;Humidity;BMP_temperature;BMP_pressure;BME280_temperature;BME280_humidity;BME280_pressure;Samples;Min_cycle;Max_cycle;Signal;HPM_P1;HPM_P2
2021/07/06 00:00:50;;;;;;;;;;;14.40;99.90;;;;;;5039312;28;19976;-84
2021/07/06 00:03:16;;;;;;;;;;;14.40;99.90;;;;;;5024487;28;19910;-84
2021/07/06 00:05:41;;;;;;;;;;;14.30;99.90;;;;;;5007258;28;19920;-86
2021/07/06 00:08:07;;;;;;;;;;;14.30;99.90;;;;;;4999691;28;20368;-86
2021/07/06 00:10:35;;;;;;;;;;;14.30;99.90;;;;;;4999786;28;19909;-86
2021/07/06 00:13:01;;;;;;;;;;;14.30;99.90;;;;;;5017352;28;19920;-85
2021/07/06 00:15:26;;;;;;;;;;;14.30;99.90;;;;;;4999564;28;19914;-86
2021/07/06 00:17:52;;;;;;;;;;;14.30;99.90;;;;;;4997922;28;19968;-85
2021/07/06 00:20:19;;;;;;;;;;;14.30;99.90;;;;;;4998140;28;19914;-86
2021/07/06 00:22:45;;;;;;;;;;;14.30;99.90;;;;;;4998090;28;20514;-86
2021/07/06 00:25:10;;;;;;;;;;;14.20;99.90;;;;;;4998005;28;19964;-86
2021/07/06 00:27:36;;;;;;;;;;;14.20;99.90;;;;;;5014553;28;19913;-86
2021/07/06 00:30:03;;;;;;;;;;;14.10;99.90;;;;;;4997781;28;20471;-86
2021/07/06 00:32:29;;;;;;;;;;;14.10;99.90;;;;;;4997953;28;20479;-86
2021/07/06 00:34:54;;;;;;;;;;;14.10;99.90;;;;;;5015505;28;19916;-86
2021/07/06 00:37:20;;;;;;;;;;;14.10;99.90;;;;;;4997309;28;19917;-86
2021/07/06 00:39:45;;;;;;;;;;;14.10;99.90;;;;;;4997807;28;20020;-85
2021/07/06 00:42:11;;;;;;;;;;;14.10;99.90;;;;;;4997629;28;19967;-86
2021/07/06 00:44:37;;;;;;;;;;;14.10;99.90;;;;;;4997627;28;19956;-86
2021/07/06 00:47:03;;;;;;;;;;;14.10;99.90;;;;;;4997115;28;19910;-86
2021/07/06 00:49:29;;;;;;;;;;;14.00;99.90;;;;;;4997600;28;19916;-86
2021/07/06 00:51:54;;;;;;;;;;;14.00;99.90;;;;;;4997828;28;19910;-87
2021/07/06 00:54:20;;;;;;;;;;;14.00;99.90;;;;;;4997587;28;20399;-86
2021/07/06 00:56:45;;;;;;;;;;;14.00;99.90;;;;;;4994679;28;19964;-86
2021/07/06 00:59:12;;;;;;;;;;;14.00;99.90;;;;;;5015151;28;19936;-86
2021/07/06 01:01:37;;;;;;;;;;;14.00;99.90;;;;;;4997574;28;20418;-86
2021/07/06 01:04:03;;;;;;;;;;;13.90;99.90;;;;;;4997451;28;19910;-85
2021/07/06 01:06:29;;;;;;;;;;;13.90;99.90;;;;;;5014455;28;19921;-86
2021/07/06 01:08:54;;;;;;;;;;;13.90;99.90;;;;;;4997063;28;19913;-85
2021/07/06 01:11:20;;;;;;;;;;;13.90;99.90;;;;;;4997277;28;19909;-86
2021/07/06 01:13:46;;;;;;;;;;;13.90;99.90;;;;;;4997415;28;19967;-86
2021/07/06 01:16:11;;;;;;;;;;;14.00;99.90;;;;;;5014533;28;20335;-86
2021/07/06 01:18:37;;;;;;;;;;;14.00;99.90;;;;;;4997024;28;19917;-85
2021/07/06 01:21:02;;;;;;;;;;;13.90;99.90;;;;;;4997020;28;19913;-85
2021/07/06 01:23:29;;;;;;;;;;;13.90;99.90;;;;;;4997022;28;20047;-86
2021/07/06 01:25:56;;;;;;;;;;;13.90;99.90;;;;;;4996862;28;20387;-85
2021/07/06 01:28:21;;;;;;;;;;;13.90;99.90;;;;;;4996707;28;19909;-86
2021/07/06 01:30:47;;;;;;;;;;;13.90;99.90;;;;;;4996978;28;19924;-85
2021/07/06 01:33:20;;;;;;;;;;;13.80;99.90;;;;;;5013800;28;19979;-85
2021/07/06 01:35:46;;;;;;;;;;;13.80;99.90;;;;;;4996855;28;20327;-85
2021/07/06 01:38:11;;;;;;;;;;;13.80;99.90;;;;;;4996386;28;19909;-86
2021/07/06 01:40:36;;;;;;;;;;;13.80;99.90;;;;;;4996560;28;19913;-86
2021/07/06 01:43:02;;;;;;;;;;;13.80;99.90;;;;;;4996509;28;19917;-86
2021/07/06 01:45:29;;;;;;;;;;;13.80;99.90;;;;;;4996735;28;20008;-86
2021/07/06 01:47:56;;;;;;;;;;;13.70;99.90;;;;;;5013812;28;19949;-86
2021/07/06 01:50:32;;;;;;;;;;;13.70;99.90;;;;;;5014115;28;19909;-86
2021/07/06 01:53:03;;;;;;;;;;;13.70;99.90;;;;;;5013890;28;19917;-86
2021/07/06 01:55:30;;;;;;;;;;;13.70;99.90;;;;;;5013894;28;19956;-86
2021/07/06 01:57:56;;;;;;;;;;;13.70;99.90;;;;;;4995625;28;19948;-86
2021/07/06 02:00:23;;;;;;;;;;;13.70;99.90;;;;;;4995589;28;19913;-86
2021/07/06 02:02:49;;;;;;;;;;;13.60;99.90;;;;;;4996134;28;19916;-87
2021/07/06 02:05:18;;;;;;;;;;;13.50;99.90;;;;;;4996148;28;20270;-86
2021/07/06 02:07:44;;;;;;;;;;;13.50;99.90;;;;;;4996051;28;20342;-86
2021/07/06 02:10:11;;;;;;;;;;;13.50;99.90;;;;;;4996476;28;19909;-86
2021/07/06 02:12:37;;;;;;;;;;;13.50;99.90;;;;;;5014149;28;20012;-86
2021/07/06 02:15:04;;;;;;;;;;;13.50;99.90;;;;;;4996242;28;19913;-86
2021/07/06 02:17:30;;;;;;;;;;;13.50;99.90;;;;;;4995664;28;19933;-84
2021/07/06 02:19:55;;;;;;;;;;;13.50;99.90;;;;;;4995880;28;20543;-86
2021/07/06 02:22:21;;;;;;;;;;;13.50;99.90;;;;;;5013657;28;19929;-85
2021/07/06 02:24:46;;;;;;;;;;;13.50;99.90;;;;;;4996017;28;19951;-85
2021/07/06 02:27:12;;;;;;;;;;;13.40;99.90;;;;;;4995577;28;19913;-86
2021/07/06 02:29:38;;;;;;;;;;;13.40;99.90;;;;;;4996245;28;19910;-86
2021/07/06 02:32:03;;;;;;;;;;;13.40;99.90;;;;;;4995742;28;20338;-86
2021/07/06 02:34:29;;;;;;;;;;;13.50;99.90;;;;;;5013214;28;19909;-86
2021/07/06 02:36:54;;;;;;;;;;;13.50;99.90;;;;;;4995523;28;19910;-85
2021/07/06 02:39:20;;;;;;;;;;;13.50;99.90;;;;;;4995937;28;19964;-86
2021/07/06 02:41:45;;;;;;;;;;;13.50;99.90;;;;;;5013456;28;20038;-85
2021/07/06 02:44:11;;;;;;;;;;;13.50;99.90;;;;;;5013638;28;19913;-85
2021/07/06 02:46:36;;;;;;;;;;;13.40;99.90;;;;;;4995854;28;19913;-86
2021/07/06 02:49:02;;;;;;;;;;;13.40;99.90;;;;;;5013296;28;19967;-85
2021/07/06 02:51:27;;;;;;;;;;;13.40;99.90;;;;;;4995577;28;20004;-86
2021/07/06 02:53:53;;;;;;;;;;;13.30;99.90;;;;;;5013171;28;19916;-86
2021/07/06 02:56:18;;;;;;;;;;;13.30;99.90;;;;;;5012730;28;19918;-86
2021/07/06 02:58:44;;;;;;;;;;;13.20;99.90;;;;;;4995042;28;19909;-87
2021/07/06 03:01:09;;;;;;;;;;;13.20;99.90;;;;;;4995361;28;19960;-86
2021/07/06 03:03:35;;;;;;;;;;;13.30;99.90;;;;;;4995318;28;19956;-86
2021/07/06 03:06:00;;;;;;;;;;;13.30;99.90;;;;;;4995162;28;19913;-85
2021/07/06 03:08:29;;;;;;;;;;;13.30;99.90;;;;;;4995334;28;19952;-86
2021/07/06 03:10:55;;;;;;;;;;;13.30;99.90;;;;;;4997077;28;20000;-86
2021/07/06 03:13:21;;;;;;;;;;;13.30;99.90;;;;;;5017088;28;20004;-86
2021/07/06 03:15:46;;;;;;;;;;;13.30;99.90;;;;;;4999434;28;20320;-86
2021/07/06 03:18:12;;;;;;;;;;;13.30;99.90;;;;;;4999000;28;20064;-86
2021/07/06 03:20:38;;;;;;;;;;;13.20;99.90;;;;;;4999242;28;19914;-86
2021/07/06 03:23:04;;;;;;;;;;;13.20;99.90;;;;;;4999052;28;19909;-86
2021/07/06 03:25:30;;;;;;;;;;;13.20;99.90;;;;;;4999202;28;19909;-86
2021/07/06 03:27:57;;;;;;;;;;;13.20;99.90;;;;;;5016207;28;19956;-86
2021/07/06 03:30:23;;;;;;;;;;;13.20;99.90;;;;;;5016488;28;19928;-85
2021/07/06 03:32:50;;;;;;;;;;;13.20;99.90;;;;;;4998900;28;19920;-86
2021/07/06 03:35:16;;;;;;;;;;;13.20;99.90;;;;;;4998918;28;19949;-86
2021/07/06 03:37:41;;;;;;;;;;;13.20;99.90;;;;;;4998803;28;19952;-86
2021/07/06 03:40:08;;;;;;;;;;;13.30;99.90;;;;;;4998737;28;19947;-86
2021/07/06 03:42:34;;;;;;;;;;;13.30;99.90;;;;;;4998928;28;19913;-85
2021/07/06 03:44:59;;;;;;;;;;;13.30;99.90;;;;;;4999040;28;19964;-86
2021/07/06 03:47:25;;;;;;;;;;;13.30;99.90;;;;;;4998612;28;19917;-86
2021/07/06 03:49:50;;;;;;;;;;;13.20;99.90;;;;;;4998865;28;20353;-86
2021/07/06 03:52:16;;;;;;;;;;;13.30;99.90;;;;;;4998854;28;19914;-86
2021/07/06 03:54:41;;;;;;;;;;;13.30;99.90;;;;;;4998695;28;19916;-86
2021/07/06 03:57:07;;;;;;;;;;;13.30;99.90;;;;;;4998097;28;20399;-86
2021/07/06 03:59:32;;;;;;;;;;;13.40;99.90;;;;;;5015889;28;20004;-86
2021/07/06 04:01:58;;;;;;;;;;;13.40;99.90;;;;;;4998262;28;19917;-86
2021/07/06 04:04:24;;;;;;;;;;;13.50;99.90;;;;;;5016006;28;20356;-86
2021/07/06 04:06:49;;;;;;;;;;;13.50;99.90;;;;;;4998173;28;19910;-86
2021/07/06 04:09:15;;;;;;;;;;;13.50;99.90;;;;;;4998239;28;19913;-86
2021/07/06 04:11:40;;;;;;;;;;;13.50;99.90;;;;;;4998344;28;19915;-86
2021/07/06 04:14:06;;;;;;;;;;;13.60;99.90;;;;;;4998218;28;20297;-86
2021/07/06 04:16:31;;;;;;;;;;;13.60;99.90;;;;;;4998251;28;19910;-86
2021/07/06 04:18:57;;;;;;;;;;;13.70;99.90;;;;;;4997809;28;20400;-85
2021/07/06 04:21:22;;;;;;;;;;;13.80;99.90;;;;;;4997479;28;19933;-86
2021/07/06 04:23:48;;;;;;;;;;;13.90;99.90;;;;;;4997540;28;20348;-86
2021/07/06 04:26:13;;;;;;;;;;;14.00;99.90;;;;;;4997707;28;19910;-86
2021/07/06 04:28:39;;;;;;;;;;;14.10;99.90;;;;;;4997767;28;19989;-86
2021/07/06 04:31:04;;;;;;;;;;;14.20;99.90;;;;;;4997619;28;19925;-86
2021/07/06 04:33:30;;;;;;;;;;;14.30;99.90;;;;;;5015249;28;19956;-86
2021/07/06 04:35:55;;;;;;;;;;;14.30;99.90;;;;;;4997880;28;19932;-85
2021/07/06 04:38:21;;;;;;;;;;;14.40;99.90;;;;;;4997413;28;19917;-86
2021/07/06 04:40:46;;;;;;;;;;;14.50;99.90;;;;;;4997774;28;19996;-86
2021/07/06 04:43:12;;;;;;;;;;;14.50;99.90;;;;;;4997451;28;19920;-86
2021/07/06 04:45:38;;;;;;;;;;;14.60;99.90;;;;;;4997290;28;19909;-86
2021/07/06 04:48:04;;;;;;;;;;;14.70;99.90;;;;;;4997370;28;19916;-86
2021/07/06 04:50:30;;;;;;;;;;;14.80;99.90;;;;;;4997613;28;19916;-85
2021/07/06 04:52:56;;;;;;;;;;;14.90;99.90;;;;;;4997572;28;19976;-86
2021/07/06 04:55:22;;;;;;;;;;;15.00;99.90;;;;;;4997466;28;19913;-86
2021/07/06 04:57:48;;;;;;;;;;;15.20;99.90;;;;;;4997185;28;19913;-86
2021/07/06 05:00:14;;;;;;;;;;;15.30;99.90;;;;;;4997284;28;19913;-86
2021/07/06 05:02:40;;;;;;;;;;;15.40;99.90;;;;;;4997476;28;19944;-86
2021/07/06 05:05:06;;;;;;;;;;;15.50;99.90;;;;;;4997461;28;19916;-86
2021/07/06 05:07:35;;;;;;;;;;;15.50;99.90;;;;;;4997292;28;20241;-86
2021/07/06 05:10:01;;;;;;;;;;;15.50;99.90;;;;;;4997456;28;19914;-86
2021/07/06 05:12:27;;;;;;;;;;;15.50;99.90;;;;;;4997405;28;19933;-86
2021/07/06 05:14:52;;;;;;;;;;;15.60;99.90;;;;;;5014782;28;19913;-86
2021/07/06 05:17:18;;;;;;;;;;;15.60;99.90;;;;;;4997321;28;19959;-86
2021/07/06 05:19:43;;;;;;;;;;;15.60;99.90;;;;;;5014693;28;19914;-86
2021/07/06 05:22:09;;;;;;;;;;;15.50;99.90;;;;;;5014804;28;19910;-86
2021/07/06 05:24:34;;;;;;;;;;;15.50;99.90;;;;;;5014595;28;19917;-86
2021/07/06 05:27:00;;;;;;;;;;;15.50;99.90;;;;;;5014032;28;19967;-86
2021/07/06 05:29:25;;;;;;;;;;;15.50;99.90;;;;;;4996874;28;19965;-86
2021/07/06 05:31:51;;;;;;;;;;;15.60;99.90;;;;;;4996791;28;19918;-86
2021/07/06 05:34:16;;;;;;;;;;;15.80;99.90;;;;;;4996664;28;19913;-86
2021/07/06 05:36:43;;;;;;;;;;;16.00;99.90;;;;;;4996764;28;19917;-88
2021/07/06 05:39:09;;;;;;;;;;;16.20;99.90;;;;;;4996452;28;19914;-86
2021/07/06 05:41:35;;;;;;;;;;;16.30;99.90;;;;;;4996534;28;19909;-86
2021/07/06 05:44:00;;;;;;;;;;;16.40;99.90;;;;;;4996743;28;19913;-86
2021/07/06 05:46:29;;;;;;;;;;;16.70;99.90;;;;;;4996466;28;19917;-87
2021/07/06 05:48:55;;;;;;;;;;;17.10;99.90;;;;;;4996674;28;19968;-85
2021/07/06 05:51:21;;;;;;;;;;;17.50;99.90;;;;;;5014047;28;19967;-86
2021/07/06 05:53:49;;;;;;;;;;;18.10;99.90;;;;;;4996478;28;19913;-86
2021/07/06 05:56:18;;;;;;;;;;;18.50;99.90;;;;;;5013809;28;20382;-86
2021/07/06 05:58:43;;;;;;;;;;;19.00;99.90;;;;;;4996009;28;19916;-86
2021/07/06 06:01:09;;;;;;;;;;;19.30;99.90;;;;;;4996313;28;19917;-87
2021/07/06 06:03:34;;;;;;;;;;;19.80;99.90;;;;;;4997367;28;19952;-86
2021/07/06 06:06:01;;;;;;;;;;;20.40;99.90;;;;;;4996129;28;19917;-86
2021/07/06 06:08:26;;;;;;;;;;;20.80;99.90;;;;;;4996298;28;19963;-87
2021/07/06 06:10:52;;;;;;;;;;;21.40;99.90;;;;;;4996444;28;19910;-87
2021/07/06 06:13:17;;;;;;;;;;;21.90;99.90;;;;;;4996170;28;19921;-86
2021/07/06 06:15:43;;;;;;;;;;;22.40;99.90;;;;;;5013608;28;19917;-87
2021/07/06 06:18:09;;;;;;;;;;;22.80;99.90;;;;;;4996044;28;19910;-85
2021/07/06 06:20:34;;;;;;;;;;;23.30;99.90;;;;;;4996302;28;20364;-85
2021/07/06 06:23:00;;;;;;;;;;;23.70;99.90;;;;;;4996061;28;19936;-82
2021/07/06 06:25:25;;;;;;;;;;;23.60;99.90;;;;;;5000151;28;20007;-82
2021/07/06 06:27:52;;;;;;;;;;;23.80;99.90;;;;;;4998429;28;20004;-82
2021/07/06 06:30:18;;;;;;;;;;;24.10;99.90;;;;;;5001100;28;20423;-81
2021/07/06 06:32:43;;;;;;;;;;;24.20;99.90;;;;;;5018865;28;19960;-82
2021/07/06 06:35:15;;;;;;;;;;;24.40;99.90;;;;;;5005629;28;19909;-82
2021/07/06 06:37:41;;;;;;;;;;;24.80;99.90;;;;;;5000962;28;19909;-82
2021/07/06 06:40:07;;;;;;;;;;;25.00;99.90;;;;;;5014190;28;19968;-83
2021/07/06 06:42:33;;;;;;;;;;;24.70;99.90;;;;;;4995927;28;19909;-82
2021/07/06 06:44:58;;;;;;;;;;;24.30;99.90;;;;;;5002726;28;19916;-81
2021/07/06 06:47:24;;;;;;;;;;;23.90;99.90;;;;;;4996419;28;20300;-82
2021/07/06 06:49:49;;;;;;;;;;;24.00;99.90;;;;;;5012243;28;19949;-83
2021/07/06 06:52:15;;;;;;;;;;;24.50;99.90;;;;;;5013913;28;20334;-83
2021/07/06 06:54:40;;;;;;;;;;;25.10;99.90;;;;;;5012695;28;19915;-83
2021/07/06 06:57:06;;;;;;;;;;;25.50;99.90;;;;;;5001243;28;19913;-82
2021/07/06 06:59:32;;;;;;;;;;;26.00;99.90;;;;;;4996461;28;19921;-82
2021/07/06 07:04:41;;;;;;;;;;;26.90;99.90;;;;;;5015142;28;20452;-83
2021/07/06 07:07:07;;;;;;;;;;;27.30;99.90;;;;;;4996771;28;19949;-82
2021/07/06 07:09:32;;;;;;;;;;;27.20;99.90;;;;;;4997301;28;20004;-83
2021/07/06 07:11:58;;;;;;;;;;;26.80;99.90;;;;;;4998662;28;20280;-83
2021/07/06 07:14:23;;;;;;;;;;;25.90;99.90;;;;;;4997425;28;19909;-82
2021/07/06 07:16:50;;;;;;;;;;;25.40;99.90;;;;;;4997272;28;19910;-82
2021/07/06 07:19:16;;;;;;;;;;;25.30;99.90;;;;;;4996040;28;19914;-82
2021/07/06 07:21:41;;;;;;;;;;;25.00;99.90;;;;;;4996685;28;19910;-82
2021/07/06 07:24:07;;;;;;;;;;;24.60;99.90;;;;;;4996874;28;19909;-82
2021/07/06 07:26:32;;;;;;;;;;;24.50;99.90;;;;;;4996163;28;20643;-83
2021/07/06 07:28:58;;;;;;;;;;;25.10;99.90;;;;;;4995850;28;19964;-83
2021/07/06 07:31:24;;;;;;;;;;;25.70;99.90;;;;;;4997314;28;19918;-83
2021/07/06 07:33:49;;;;;;;;;;;25.90;99.90;;;;;;4997989;28;19960;-83
2021/07/06 07:36:15;;;;;;;;;;;26.20;99.90;;;;;;5015268;28;19909;-83
2021/07/06 07:38:40;;;;;;;;;;;26.50;99.90;;;;;;4998744;28;19992;-83
2021/07/06 07:41:06;;;;;;;;;;;26.60;99.90;;;;;;5016087;28;19913;-82
2021/07/06 07:43:31;;;;;;;;;;;26.80;99.90;;;;;;4998861;28;19916;-83
2021/07/06 07:45:57;;;;;;;;;;;27.20;99.90;;;;;;4997082;28;19932;-83
2021/07/06 07:48:23;;;;;;;;;;;27.30;99.90;;;;;;4995942;28;19910;-83
2021/07/06 07:50:48;;;;;;;;;;;27.20;99.90;;;;;;4997454;28;20288;-83
2021/07/06 07:53:14;;;;;;;;;;;26.80;99.90;;;;;;4996297;28;20005;-83
2021/07/06 07:55:39;;;;;;;;;;;26.50;99.90;;;;;;4999623;28;20083;-83
2021/07/06 07:58:05;;;;;;;;;;;26.20;99.90;;;;;;4999931;28;19916;-83
2021/07/06 08:00:30;;;;;;;;;;;25.90;99.90;;;;;;5000632;28;19914;-83
2021/07/06 08:02:59;;;;;;;;;;;25.70;99.90;;;;;;5018935;28;19921;-82
2021/07/06 08:05:25;;;;;;;;;;;25.60;99.90;;;;;;5003325;28;19916;-82
2021/07/06 08:07:50;;;;;;;;;;;25.30;99.90;;;;;;5002992;28;19910;-81
2021/07/06 08:10:16;;;;;;;;;;;25.20;99.90;;;;;;5003043;28;19972;-83
2021/07/06 08:12:41;;;;;;;;;;;25.30;99.90;;;;;;5002697;28;19953;-83
2021/07/06 08:15:07;;;;;;;;;;;26.00;99.90;;;;;;5014618;28;19913;-81
2021/07/06 08:17:32;;;;;;;;;;;26.60;99.90;;;;;;5014153;28;19920;-83
2021/07/06 08:20:01;;;;;;;;;;;27.20;99.90;;;;;;5003589;28;19924;-83
2021/07/06 08:22:27;;;;;;;;;;;27.80;99.90;;;;;;5002867;28;19913;-83
2021/07/06 08:24:52;;;;;;;;;;;28.30;99.90;;;;;;5004889;28;19910;-83
2021/07/06 08:27:18;;;;;;;;;;;28.80;99.90;;;;;;4999438;28;19910;-83
2021/07/06 08:29:44;;;;;;;;;;;29.30;99.90;;;;;;5018084;28;19917;-83
2021/07/06 08:32:09;;;;;;;;;;;29.60;99.90;;;;;;5004939;28;19925;-84
2021/07/06 08:34:35;;;;;;;;;;;29.90;98.90;;;;;;5005708;28;19914;-83
2021/07/06 08:37:00;;;;;;;;;;;30.10;99.60;;;;;;5000997;28;20008;-83
2021/07/06 08:39:26;;;;;;;;;;;30.20;99.20;;;;;;5019657;28;19913;-84
2021/07/06 08:41:52;;;;;;;;;;;30.30;98.30;;;;;;5010754;28;19910;-82
2021/07/06 08:44:17;;;;;;;;;;;30.40;98.20;;;;;;5022829;28;19912;-82
2021/07/06 08:46:43;;;;;;;;;;;30.50;97.20;;;;;;5023185;28;19902;-82
2021/07/06 08:49:11;;;;;;;;;;;30.50;97.50;;;;;;5022116;28;20153;-84
2021/07/06 08:51:40;;;;;;;;;;;30.50;96.90;;;;;;5016813;28;19945;-84
2021/07/06 08:54:05;;;;;;;;;;;30.30;97.40;;;;;;5013545;28;19910;-83
2021/07/06 08:56:31;;;;;;;;;;;30.40;98.10;;;;;;5008926;28;19909;-84
2021/07/06 08:58:56;;;;;;;;;;;30.10;97.00;;;;;;5004122;28;19917;-83
2021/07/06 09:01:28;;;;;;;;;;;29.60;97.20;;;;;;5020233;28;19909;-83
2021/07/06 09:03:54;;;;;;;;;;;29.20;98.80;;;;;;5003588;28;20051;-83
2021/07/06 09:06:20;;;;;;;;;;;28.80;98.60;;;;;;5003166;28;19953;-84
2021/07/06 09:08:51;;;;;;;;;;;28.50;99.20;;;;;;5001923;28;19915;-84
2021/07/06 09:11:17;;;;;;;;;;;28.40;99.90;;;;;;5021312;28;19914;-83
2021/07/06 09:13:42;;;;;;;;;;;28.20;99.90;;;;;;5022329;28;19909;-84
2021/07/06 09:16:18;;;;;;;;;;;27.90;99.90;;;;;;5004027;28;19963;-84
2021/07/06 09:18:46;;;;;;;;;;;27.50;99.30;;;;;;5004168;28;19909;-84
2021/07/06 09:21:13;;;;;;;;;;;27.10;99.90;;;;;;5003009;28;19913;-83
2021/07/06 09:23:41;;;;;;;;;;;26.70;99.90;;;;;;5002457;28;19909;-83
2021/07/06 09:26:10;;;;;;;;;;;26.60;99.90;;;;;;5021493;28;19920;-84
2021/07/06 09:28:55;;;;;;;;;;;26.30;99.90;;;;;;5003692;28;19909;-83
2021/07/06 09:31:32;;;;;;;;;;;26.10;99.90;;;;;;4981988;28;19941;-82
2021/07/06 09:34:01;;;;;;;;;;;26.00;99.90;;;;;;4988705;28;19914;-84
2021/07/06 09:36:27;;;;;;;;;;;25.80;99.90;;;;;;5002943;28;19936;-83
2021/07/06 09:39:07;;;;;;;;;;;25.60;99.90;;;;;;5003229;28;20249;-85
2021/07/06 09:41:33;;;;;;;;;;;25.60;99.90;;;;;;4997765;28;20285;-82
2021/07/06 09:44:18;;;;;;;;;;;25.60;99.90;;;;;;4997009;28;19932;-84
2021/07/06 09:46:48;;;;;;;;;;;25.80;99.90;;;;;;4997391;28;20001;-83
2021/07/06 09:49:19;;;;;;;;;;;25.60;99.90;;;;;;5015343;28;20338;-84
2021/07/06 09:51:45;;;;;;;;;;;25.10;99.90;;;;;;4994068;28;19909;-83
2021/07/06 09:54:22;;;;;;;;;;;25.00;99.90;;;;;;4994829;28;19910;-84
2021/07/06 09:56:49;;;;;;;;;;;24.70;99.90;;;;;;4997139;28;19910;-83
2021/07/06 09:59:15;;;;;;;;;;;24.20;99.90;;;;;;4998098;28;20372;-84
2021/07/06 10:01:54;;;;;;;;;;;24.20;99.90;;;;;;4995843;28;19992;-84
2021/07/06 10:04:26;;;;;;;;;;;24.20;99.90;;;;;;4998206;28;20296;-84
2021/07/06 10:06:55;;;;;;;;;;;24.00;99.90;;;;;;5015704;28;19939;-84
2021/07/06 10:09:21;;;;;;;;;;;23.80;99.90;;;;;;4996284;28;19993;-84
2021/07/06 10:11:46;;;;;;;;;;;23.60;99.90;;;;;;4999400;28;20400;-85
2021/07/06 10:14:12;;;;;;;;;;;23.50;99.90;;;;;;5014844;28;19917;-83
2021/07/06 10:16:38;;;;;;;;;;;23.30;99.90;;;;;;4996752;28;20008;-84
2021/07/06 10:19:06;;;;;;;;;;;23.30;99.90;;;;;;4996792;28;20328;-84
2021/07/06 10:21:32;;;;;;;;;;;23.20;99.90;;;;;;4996281;28;19916;-84
2021/07/06 10:23:58;;;;;;;;;;;23.10;99.90;;;;;;4997845;28;20291;-84
2021/07/06 10:26:28;;;;;;;;;;;23.20;99.90;;;;;;4997508;28;19910;-83
2021/07/06 10:28:53;;;;;;;;;;;23.20;99.90;;;;;;4996340;28;19910;-84
2021/07/06 10:31:20;;;;;;;;;;;23.10;99.90;;;;;;4991112;28;19996;-83
2021/07/06 10:33:46;;;;;;;;;;;23.00;99.90;;;;;;4996535;28;19921;-84
2021/07/06 10:36:13;;;;;;;;;;;23.00;99.90;;;;;;5014034;28;19909;-83
2021/07/06 10:38:53;;;;;;;;;;;22.70;99.90;;;;;;4996885;28;19969;-83
2021/07/06 10:41:21;;;;;;;;;;;22.60;99.90;;;;;;4996726;28;19914;-84
2021/07/06 10:43:46;;;;;;;;;;;22.50;99.90;;;;;;5002702;28;19913;-84
2021/07/06 10:46:21;;;;;;;;;;;22.50;99.90;;;;;;4997694;28;19917;-84
2021/07/06 10:48:46;;;;;;;;;;;22.40;99.90;;;;;;4995771;28;20296;-84
2021/07/06 10:51:30;;;;;;;;;;;22.20;99.90;;;;;;5015056;28;19916;-84
2021/07/06 10:54:05;;;;;;;;;;;22.20;99.90;;;;;;4998143;28;19917;-84
2021/07/06 10:56:32;;;;;;;;;;;22.20;99.90;;;;;;4995926;28;19910;-84
2021/07/06 10:58:58;;;;;;;;;;;22.30;99.90;;;;;;4996032;28;20007;-84
2021/07/06 11:01:36;;;;;;;;;;;22.30;99.90;;;;;;4997057;28;19920;-84
2021/07/06 11:04:09;;;;;;;;;;;22.40;99.90;;;;;;4997796;28;20269;-84
2021/07/06 11:06:43;;;;;;;;;;;22.50;99.90;;;;;;4996340;28;19929;-84
2021/07/06 11:09:09;;;;;;;;;;;22.60;99.90;;;;;;4998593;28;20004;-83
2021/07/06 11:11:35;;;;;;;;;;;22.80;99.90;;;;;;4997342;28;19909;-82
2021/07/06 11:14:16;;;;;;;;;;;22.90;99.90;;;;;;4997113;28;19913;-83
2021/07/06 11:16:41;;;;;;;;;;;22.90;99.90;;;;;;5015232;28;19916;-84
2021/07/06 11:19:30;;;;;;;;;;;22.90;99.90;;;;;;4996118;28;19909;-84
2021/07/06 11:22:09;;;;;;;;;;;22.90;99.90;;;;;;4995170;28;19964;-84
2021/07/06 11:24:44;;;;;;;;;;;23.00;99.90;;;;;;4997617;28;19936;-83
2021/07/06 11:27:12;;;;;;;;;;;23.10;99.90;;;;;;4997621;28;19956;-83
2021/07/06 11:29:38;;;;;;;;;;;23.10;99.90;;;;;;5012883;28;20408;-84
2021/07/06 11:32:11;;;;;;;;;;;23.20;99.90;;;;;;4997685;28;20371;-83
2021/07/06 11:34:37;;;;;;;;;;;23.10;99.90;;;;;;4999797;28;20384;-83
2021/07/06 11:37:04;;;;;;;;;;;23.10;99.90;;;;;;5016819;28;19914;-83
2021/07/06 11:39:29;;;;;;;;;;;23.10;99.90;;;;;;5016878;28;20000;-83
2021/07/06 11:41:54;;;;;;;;;;;23.10;99.90;;;;;;4999147;28;20007;-84
2021/07/06 11:44:20;;;;;;;;;;;23.00;99.90;;;;;;4999056;28;19920;-83
2021/07/06 11:46:45;;;;;;;;;;;23.00;99.90;;;;;;5016989;28;20000;-84
2021/07/06 11:49:11;;;;;;;;;;;23.00;99.90;;;;;;5015997;28;19910;-85
2021/07/06 11:51:40;;;;;;;;;;;23.00;99.90;;;;;;4998987;28;19981;-84
2021/07/06 11:54:07;;;;;;;;;;;23.00;99.90;;;;;;4980032;28;19910;-85
2021/07/06 11:56:36;;;;;;;;;;;23.00;99.90;;;;;;4981137;28;19910;-85
2021/07/06 11:59:07;;;;;;;;;;;23.00;99.90;;;;;;4990137;28;19977;-83
2021/07/06 12:01:33;;;;;;;;;;;23.10;99.90;;;;;;4997904;28;19916;-84
2021/07/06 12:03:59;;;;;;;;;;;23.20;99.90;;;;;;5015728;28;20283;-84
2021/07/06 12:06:28;;;;;;;;;;;23.30;99.90;;;;;;5015623;28;19995;-84
2021/07/06 12:08:54;;;;;;;;;;;23.40;99.90;;;;;;4998290;28;19910;-84
2021/07/06 12:11:20;;;;;;;;;;;23.60;99.90;;;;;;4998876;28;20054;-84
2021/07/06 12:13:50;;;;;;;;;;;23.80;99.90;;;;;;4998461;28;19945;-84
2021/07/06 12:16:38;;;;;;;;;;;24.00;99.90;;;;;;4998620;28;19913;-84
2021/07/06 12:19:06;;;;;;;;;;;24.00;99.90;;;;;;4998117;28;19916;-84
2021/07/06 12:21:37;;;;;;;;;;;24.10;99.90;;;;;;4998349;28;19913;-84
2021/07/06 12:24:07;;;;;;;;;;;24.00;99.90;;;;;;5016365;28;20284;-84
2021/07/06 12:26:35;;;;;;;;;;;24.00;99.90;;;;;;4995273;28;19909;-82
2021/07/06 12:29:01;;;;;;;;;;;23.90;99.90;;;;;;4998726;28;19941;-84
2021/07/06 12:31:33;;;;;;;;;;;23.80;99.90;;;;;;5016166;28;19933;-84
2021/07/06 12:33:58;;;;;;;;;;;23.80;99.90;;;;;;4998769;28;19992;-85
2021/07/06 12:36:28;;;;;;;;;;;23.80;99.90;;;;;;5001088;28;20511;-84
2021/07/06 12:39:06;;;;;;;;;;;23.90;99.90;;;;;;5000607;28;19953;-84
2021/07/06 12:41:38;;;;;;;;;;;24.00;99.90;;;;;;4998587;28;19971;-84
2021/07/06 12:44:04;;;;;;;;;;;24.10;99.90;;;;;;4999151;28;19940;-84
2021/07/06 12:46:30;;;;;;;;;;;24.00;99.90;;;;;;4999505;28;20299;-83
2021/07/06 12:48:58;;;;;;;;;;;24.00;99.90;;;;;;4998580;28;20284;-86
2021/07/06 12:51:24;;;;;;;;;;;24.10;99.90;;;;;;4997732;28;19909;-86
2021/07/06 12:53:57;;;;;;;;;;;24.20;99.90;;;;;;4998751;28;19937;-86
2021/07/06 12:56:25;;;;;;;;;;;24.30;99.90;;;;;;4997757;28;20363;-87
2021/07/06 12:58:50;;;;;;;;;;;24.40;99.90;;;;;;4997786;28;20455;-86
2021/07/06 13:01:30;;;;;;;;;;;24.50;99.90;;;;;;4998890;28;20009;-86
2021/07/06 13:03:56;;;;;;;;;;;24.40;99.90;;;;;;4998415;28;19917;-86
2021/07/06 13:06:21;;;;;;;;;;;24.30;99.90;;;;;;4998333;28;19909;-87
2021/07/06 13:08:50;;;;;;;;;;;24.10;99.90;;;;;;4997850;28;19964;-87
2021/07/06 13:11:23;;;;;;;;;;;24.00;99.90;;;;;;4997385;28;19909;-86
2021/07/06 13:13:48;;;;;;;;;;;23.80;99.90;;;;;;4998189;28;19916;-86
2021/07/06 13:16:14;;;;;;;;;;;23.60;99.90;;;;;;4997459;28;20432;-85
2021/07/06 13:18:47;;;;;;;;;;;23.50;99.90;;;;;;4999045;28;19968;-85
2021/07/06 13:21:20;;;;;;;;;;;23.60;99.90;;;;;;4998318;28;19924;-87
2021/07/06 13:23:46;;;;;;;;;;;23.80;99.90;;;;;;5001215;28;19969;-86
2021/07/06 13:26:12;;;;;;;;;;;24.00;99.90;;;;;;4996084;28;19916;-87
2021/07/06 13:28:37;;;;;;;;;;;24.10;99.90;;;;;;4997395;28;20000;-85
2021/07/06 13:31:04;;;;;;;;;;;24.10;99.90;;;;;;5015412;28;19976;-86
2021/07/06 13:33:30;;;;;;;;;;;24.10;99.90;;;;;;5015641;28;19909;-85
2021/07/06 13:35:56;;;;;;;;;;;24.10;99.90;;;;;;4997837;28;19955;-86
2021/07/06 13:38:24;;;;;;;;;;;24.00;99.90;;;;;;4996786;28;19920;-85
2021/07/06 13:40:52;;;;;;;;;;;24.00;99.90;;;;;;4997173;28;20024;-86
2021/07/06 13:43:17;;;;;;;;;;;24.00;99.90;;;;;;4996992;28;19913;-85
2021/07/06 13:45:44;;;;;;;;;;;24.10;99.90;;;;;;4996849;28;20372;-86
2021/07/06 13:48:09;;;;;;;;;;;24.20;99.90;;;;;;4996264;28;19909;-85
2021/07/06 13:50:35;;;;;;;;;;;24.20;99.90;;;;;;4995852;28;19915;-84
2021/07/06 13:53:01;;;;;;;;;;;24.30;99.90;;;;;;5014499;28;19917;-84
2021/07/06 13:55:31;;;;;;;;;;;24.40;99.90;;;;;;5015625;28;19913;-85
2021/07/06 13:57:57;;;;;;;;;;;24.60;99.90;;;;;;4996278;28;19913;-86
2021/07/06 14:00:23;;;;;;;;;;;24.70;99.90;;;;;;4996052;28;19914;-85
2021/07/06 14:02:49;;;;;;;;;;;24.70;99.90;;;;;;4996316;28;19913;-85
2021/07/06 14:05:14;;;;;;;;;;;24.70;99.90;;;;;;5014256;28;19909;-86
2021/07/06 14:07:40;;;;;;;;;;;24.70;99.90;;;;;;4996790;28;19917;-83
2021/07/06 14:10:08;;;;;;;;;;;24.60;99.90;;;;;;4996434;28;19916;-83
2021/07/06 14:12:34;;;;;;;;;;;24.60;99.90;;;;;;4996713;28;20376;-83
2021/07/06 14:15:00;;;;;;;;;;;24.50;99.90;;;;;;4996444;28;19916;-83
2021/07/06 14:17:25;;;;;;;;;;;24.50;99.90;;;;;;4996430;28;19932;-82